sensor_id;sensor_type;location;lat;lon;timestamp;temperature;humidity
7046;DHT22;3564;53.326;10.356;2024-02-04T00:02:07;11.20;99.90
7046;DHT22;3564;53.326;10.356;2024-02-04T00:04:38;11.30;99.90
7046;DHT22;3564;53.326;10.356;2024-02-04T00:07:03;11.30;99.90
7046;DHT22;3564;53.326;10.356;2024-02-04T00:09:32;11.20;99.90
7046;DHT22;3564;53.326;10.356;2024-02-04T00:11:57;11.20;99.90
7046;DHT22;3564;53.326;10.356;2024-02-04T00:14:24;11.20;99.90
7046;DHT22;3564;53.326;10.356;2024-02-04T00:16:52;11.20;99.90
7046;DHT22;3564;53.326;10.356;2024-02-04T00:19:18;11.20;99.90
7046;DHT22;3564;53.326;10.356;2024-02-04T00:21:44;11.20;99.90
7046;DHT22;3564;53.326;10.356;2024-02-04T00:24:09;11.20;99.90
7046;DHT22;3564;53.326;10.356;2024-02-04T00:26:38;11.20;99.90
7046;DHT22;3564;53.326;10.356;2024-02-04T00:29:03;11.10;99.90
7046;DHT22;3564;53.326;10.356;2024-02-04T00:31:29;11.10;99.90
7046;DHT22;3564;53.326;10.356;2024-02-04T00:33:54;11.10;99.90
7046;DHT22;3564;53.326;10.356;2024-02-04T00:36:20;11.00;99.90
7046;DHT22;3564;53.326;10.356;2024-02-04T00:38:47;11.00;99.90
7046;DHT22;3564;53.326;10.356;2024-02-04T00:41:12;11.00;99.90
7046;DHT22;3564;53.326;10.356;2024-02-04T00:43:38;11.00;99.90
7046;DHT22;3564;53.326;10.356;2024-02-04T00:46:03;11.00;99.90
7046;DHT22;3564;53.326;10.356;2024-02-04T00:48:32;11.00;99.90
7046;DHT22;3564;53.326;10.356;2024-02-04T00:50:58;11.00;99.90
7046;DHT22;3564;53.326;10.356;2024-02-04T00:53:26;11.00;99.90
7046;DHT22;3564;53.326;10.356;2024-02-04T00:56:00;11.00;99.90
7046;DHT22;3564;53.326;10.356;2024-02-04T00:58:25;10.90;99.90
7046;DHT22;3564;53.326;10.356;2024-02-04T01:00:51;10.90;99.90
7046;DHT22;3564;53.326;10.356;2024-02-04T01:03:17;10.90;99.90
7046;DHT22;3564;53.326;10.356;2024-02-04T01:05:42;10.90;99.90
7046;DHT22;3564;53.326;10.356;2024-02-04T01:08:08;10.90;99.90
7046;DHT22;3564;53.326;10.356;2024-02-04T01:10:33;10.90;99.90
7046;DHT22;3564;53.326;10.356;2024-02-04T01:12:59;10.90;99.90
7046;DHT22;3564;53.326;10.356;2024-02-04T01:15:24;10.90;99.90
7046;DHT22;3564;53.326;10.356;2024-02-04T01:17:51;10.90;99.90
7046;DHT22;3564;53.326;10.356;2024-02-04T01:20:18;10.90;99.90
7046;DHT22;3564;53.326;10.356;2024-02-04T01:22:46;10.90;99.90
7046;DHT22;3564;53.326;10.356;2024-02-04T01:25:12;10.90;99.90
7046;DHT22;3564;53.326;10.356;2024-02-04T01:27:38;10.90;99.90
7046;DHT22;3564;53.326;10.356;2024-02-04T01:30:04;10.90;99.90
7046;DHT22;3564;53.326;10.356;2024-02-04T01:32:30;10.90;99.90
7046;DHT22;3564;53.326;10.356;2024-02-04T01:34:55;10.80;99.90
7046;DHT22;3564;53.326;10.356;2024-02-04T01:37:21;10.80;99.90
7046;DHT22;3564;53.326;10.356;2024-02-04T01:39:52;10.80;99.90
7046;DHT22;3564;53.326;10.356;2024-02-04T01:42:23;10.80;99.90
7046;DHT22;3564;53.326;10.356;2024-02-04T01:44:49;10.80;99.90
7046;DHT22;3564;53.326;10.356;2024-02-04T01:47:15;10.90;99.90
7046;DHT22;3564;53.326;10.356;2024-02-04T01:49:40;10.90;99.90
7046;DHT22;3564;53.326;10.356;2024-02-04T01:52:07;10.90;99.90
7046;DHT22;3564;53.326;10.356;2024-02-04T01:54:34;10.90;99.90
7046;DHT22;3564;53.326;10.356;2024-02-04T01:57:00;11.00;99.90
7046;DHT22;3564;53.326;10.356;2024-02-04T01:59:41;11.00;99.90
7046;DHT22;3564;53.326;10.356;2024-02-04T02:02:06;11.00;99.90
7046;DHT22;3564;53.326;10.356;2024-02-04T02:04:32;11.00;99.90
7046;DHT22;3564;53.326;10.356;2024-02-04T02:06:59;11.00;99.90
7046;DHT22;3564;53.326;10.356;2024-02-04T02:09:26;11.00;99.90
7046;DHT22;3564;53.326;10.356;2024-02-04T02:12:14;11.00;99.90
7046;DHT22;3564;53.326;10.356;2024-02-04T02:14:45;11.00;99.90
7046;DHT22;3564;53.326;10.356;2024-02-04T02:17:15;11.00;99.90
7046;DHT22;3564;53.326;10.356;2024-02-04T02:22:50;10.90;99.90
7046;DHT22;3564;53.326;10.356;2024-02-04T02:25:21;10.90;99.90
7046;DHT22;3564;53.326;10.356;2024-02-04T02:27:51;10.80;99.90
7046;DHT22;3564;53.326;10.356;2024-02-04T02:30:17;10.80;99.90
7046;DHT22;3564;53.326;10.356;2024-02-04T02:32:44;10.80;99.90
7046;DHT22;3564;53.326;10.356;2024-02-04T02:35:15;10.80;99.90
7046;DHT22;3564;53.326;10.356;2024-02-04T02:40:21;10.80;99.90
7046;DHT22;3564;53.326;10.356;2024-02-04T02:42:49;10.80;99.90
7046;DHT22;3564;53.326;10.356;2024-02-04T02:45:20;10.90;99.90
7046;DHT22;3564;53.326;10.356;2024-02-04T02:47:47;10.90;99.90
7046;DHT22;3564;53.326;10.356;2024-02-04T02:50:13;10.90;99.90
7046;DHT22;3564;53.326;10.356;2024-02-04T02:52:39;10.90;99.90
7046;DHT22;3564;53.326;10.356;2024-02-04T02:55:05;10.90;99.90
7046;DHT22;3564;53.326;10.356;2024-02-04T02:57:34;10.90;99.90
7046;DHT22;3564;53.326;10.356;2024-02-04T02:59:59;10.90;99.90
7046;DHT22;3564;53.326;10.356;2024-02-04T03:02:25;11.00;99.90
7046;DHT22;3564;53.326;10.356;2024-02-04T03:04:50;10.90;99.90
7046;DHT22;3564;53.326;10.356;2024-02-04T03:07:19;10.90;99.90
7046;DHT22;3564;53.326;10.356;2024-02-04T03:09:45;11.00;99.90
7046;DHT22;3564;53.326;10.356;2024-02-04T03:12:10;11.00;99.90
7046;DHT22;3564;53.326;10.356;2024-02-04T03:14:36;11.00;99.90
7046;DHT22;3564;53.326;10.356;2024-02-04T03:17:01;11.00;99.90
7046;DHT22;3564;53.326;10.356;2024-02-04T03:19:27;10.90;99.90
7046;DHT22;3564;53.326;10.356;2024-02-04T03:21:53;10.90;99.90
7046;DHT22;3564;53.326;10.356;2024-02-04T03:24:18;10.90;99.90
7046;DHT22;3564;53.326;10.356;2024-02-04T03:26:44;10.90;99.90
7046;DHT22;3564;53.326;10.356;2024-02-04T03:29:09;10.90;99.90
7046;DHT22;3564;53.326;10.356;2024-02-04T03:31:35;10.90;99.90
7046;DHT22;3564;53.326;10.356;2024-02-04T03:34:01;10.90;99.90
7046;DHT22;3564;53.326;10.356;2024-02-04T03:36:32;10.80;99.90
7046;DHT22;3564;53.326;10.356;2024-02-04T03:39:01;10.80;99.90
7046;DHT22;3564;53.326;10.356;2024-02-04T03:41:29;10.90;99.90
7046;DHT22;3564;53.326;10.356;2024-02-04T03:43:55;10.90;99.90
7046;DHT22;3564;53.326;10.356;2024-02-04T03:46:21;10.80;99.90
7046;DHT22;3564;53.326;10.356;2024-02-04T03:48:46;10.80;99.90
7046;DHT22;3564;53.326;10.356;2024-02-04T03:51:16;10.90;99.90
7046;DHT22;3564;53.326;10.356;2024-02-04T03:53:43;10.80;99.90
7046;DHT22;3564;53.326;10.356;2024-02-04T03:56:11;10.80;99.90
7046;DHT22;3564;53.326;10.356;2024-02-04T03:58:37;10.80;99.90
7046;DHT22;3564;53.326;10.356;2024-02-04T04:01:03;10.80;99.90
7046;DHT22;3564;53.326;10.356;2024-02-04T04:03:31;10.80;99.90
7046;DHT22;3564;53.326;10.356;2024-02-04T04:05:57;10.80;99.90
7046;DHT22;3564;53.326;10.356;2024-02-04T04:08:22;10.80;99.90
7046;DHT22;3564;53.326;10.356;2024-02-04T04:10:48;10.70;99.90
7046;DHT22;3564;53.326;10.356;2024-02-04T04:13:14;10.70;99.90
7046;DHT22;3564;53.326;10.356;2024-02-04T04:15:40;10.70;99.90
7046;DHT22;3564;53.326;10.356;2024-02-04T04:18:10;10.70;99.90
7046;DHT22;3564;53.326;10.356;2024-02-04T04:20:38;10.70;99.90
7046;DHT22;3564;53.326;10.356;2024-02-04T04:23:03;10.70;99.90
7046;DHT22;3564;53.326;10.356;2024-02-04T04:25:29;10.70;99.90
7046;DHT22;3564;53.326;10.356;2024-02-04T04:27:55;10.70;99.90
7046;DHT22;3564;53.326;10.356;2024-02-04T04:30:23;10.60;99.90
7046;DHT22;3564;53.326;10.356;2024-02-04T04:32:48;10.60;99.90
7046;DHT22;3564;53.326;10.356;2024-02-04T04:35:17;10.60;99.90
7046;DHT22;3564;53.326;10.356;2024-02-04T04:37:42;10.60;99.90
7046;DHT22;3564;53.326;10.356;2024-02-04T04:40:08;10.60;99.90
7046;DHT22;3564;53.326;10.356;2024-02-04T04:42:34;10.60;99.90
7046;DHT22;3564;53.326;10.356;2024-02-04T04:45:00;10.60;99.90
7046;DHT22;3564;53.326;10.356;2024-02-04T04:47:25;10.60;99.90
7046;DHT22;3564;53.326;10.356;2024-02-04T04:49:54;10.60;99.90
7046;DHT22;3564;53.326;10.356;2024-02-04T04:52:19;10.60;99.90
7046;DHT22;3564;53.326;10.356;2024-02-04T04:54:48;10.60;99.90
7046;DHT22;3564;53.326;10.356;2024-02-04T04:57:20;10.50;99.90
7046;DHT22;3564;53.326;10.356;2024-02-04T04:59:45;10.50;99.90
7046;DHT22;3564;53.326;10.356;2024-02-04T05:02:14;10.50;99.90
7046;DHT22;3564;53.326;10.356;2024-02-04T05:04:43;10.40;99.90
7046;DHT22;3564;53.326;10.356;2024-02-04T05:07:09;10.50;99.90
7046;DHT22;3564;53.326;10.356;2024-02-04T05:09:38;10.50;99.90
7046;DHT22;3564;53.326;10.356;2024-02-04T05:12:03;10.50;99.90
7046;DHT22;3564;53.326;10.356;2024-02-04T05:14:29;10.50;99.90
7046;DHT22;3564;53.326;10.356;2024-02-04T05:16:55;10.40;99.90
7046;DHT22;3564;53.326;10.356;2024-02-04T05:19:20;10.30;99.90
7046;DHT22;3564;53.326;10.356;2024-02-04T05:21:46;10.30;99.90
7046;DHT22;3564;53.326;10.356;2024-02-04T05:24:15;10.30;99.90
7046;DHT22;3564;53.326;10.356;2024-02-04T05:26:40;10.30;99.90
7046;DHT22;3564;53.326;10.356;2024-02-04T05:29:06;10.30;99.90
7046;DHT22;3564;53.326;10.356;2024-02-04T05:31:31;10.30;99.90
7046;DHT22;3564;53.326;10.356;2024-02-04T05:34:05;10.30;99.90
7046;DHT22;3564;53.326;10.356;2024-02-04T05:36:35;10.30;99.90
7046;DHT22;3564;53.326;10.356;2024-02-04T05:39:16;10.20;99.90
7046;DHT22;3564;53.326;10.356;2024-02-04T05:41:42;10.20;99.90
7046;DHT22;3564;53.326;10.356;2024-02-04T05:44:08;10.20;99.90
7046;DHT22;3564;53.326;10.356;2024-02-04T05:46:52;10.20;99.90
7046;DHT22;3564;53.326;10.356;2024-02-04T05:49:17;10.20;99.90
7046;DHT22;3564;53.326;10.356;2024-02-04T05:51:46;10.20;99.90
7046;DHT22;3564;53.326;10.356;2024-02-04T05:54:12;10.10;99.90
7046;DHT22;3564;53.326;10.356;2024-02-04T05:56:38;10.10;99.90
7046;DHT22;3564;53.326;10.356;2024-02-04T05:59:04;10.10;99.90
7046;DHT22;3564;53.326;10.356;2024-02-04T06:01:29;10.10;99.90
7046;DHT22;3564;53.326;10.356;2024-02-04T06:03:55;10.10;99.90
7046;DHT22;3564;53.326;10.356;2024-02-04T06:06:20;10.10;99.90
7046;DHT22;3564;53.326;10.356;2024-02-04T06:08:49;10.10;99.90
7046;DHT22;3564;53.326;10.356;2024-02-04T06:11:15;10.10;99.90
7046;DHT22;3564;53.326;10.356;2024-02-04T06:13:42;10.10;99.90
7046;DHT22;3564;53.326;10.356;2024-02-04T06:16:11;10.10;99.90
7046;DHT22;3564;53.326;10.356;2024-02-04T06:18:39;10.00;99.90
7046;DHT22;3564;53.326;10.356;2024-02-04T06:21:11;10.00;99.90
7046;DHT22;3564;53.326;10.356;2024-02-04T06:23:38;10.00;99.90
7046;DHT22;3564;53.326;10.356;2024-02-04T06:26:05;10.00;99.90
7046;DHT22;3564;53.326;10.356;2024-02-04T06:28:30;10.00;99.90
7046;DHT22;3564;53.326;10.356;2024-02-04T06:31:02;10.00;99.90
7046;DHT22;3564;53.326;10.356;2024-02-04T06:33:27;10.00;99.90
7046;DHT22;3564;53.326;10.356;2024-02-04T06:35:56;10.00;99.90
7046;DHT22;3564;53.326;10.356;2024-02-04T06:38:22;10.00;99.90
7046;DHT22;3564;53.326;10.356;2024-02-04T06:40:47;10.00;99.90
7046;DHT22;3564;53.326;10.356;2024-02-04T06:43:16;10.00;99.90
7046;DHT22;3564;53.326;10.356;2024-02-04T06:45:41;10.00;99.90
7046;DHT22;3564;53.326;10.356;2024-02-04T06:48:07;10.00;99.90
7046;DHT22;3564;53.326;10.356;2024-02-04T06:50:33;10.00;99.90
7046;DHT22;3564;53.326;10.356;2024-02-04T06:52:59;10.10;99.90
7046;DHT22;3564;53.326;10.356;2024-02-04T06:55:27;10.10;99.90
7046;DHT22;3564;53.326;10.356;2024-02-04T06:57:53;10.10;99.90
7046;DHT22;3564;53.326;10.356;2024-02-04T07:00:19;10.10;99.90
7046;DHT22;3564;53.326;10.356;2024-02-04T07:02:52;10.10;99.90
7046;DHT22;3564;53.326;10.356;2024-02-04T07:05:18;10.10;99.90
7046;DHT22;3564;53.326;10.356;2024-02-04T07:07:43;10.10;99.90
7046;DHT22;3564;53.326;10.356;2024-02-04T07:10:09;10.10;99.90
7046;DHT22;3564;53.326;10.356;2024-02-04T07:12:35;10.10;99.90
7046;DHT22;3564;53.326;10.356;2024-02-04T07:15:01;10.10;99.90
7046;DHT22;3564;53.326;10.356;2024-02-04T07:17:27;10.10;99.90
7046;DHT22;3564;53.326;10.356;2024-02-04T07:19:53;10.10;99.90
7046;DHT22;3564;53.326;10.356;2024-02-04T07:22:18;10.10;99.90
7046;DHT22;3564;53.326;10.356;2024-02-04T07:24:53;10.10;99.90
7046;DHT22;3564;53.326;10.356;2024-02-04T07:27:18;10.10;99.90
7046;DHT22;3564;53.326;10.356;2024-02-04T07:29:44;10.10;99.90
7046;DHT22;3564;53.326;10.356;2024-02-04T07:32:10;10.10;99.90
7046;DHT22;3564;53.326;10.356;2024-02-04T07:34:35;10.10;99.90
7046;DHT22;3564;53.326;10.356;2024-02-04T07:37:04;10.10;99.90
7046;DHT22;3564;53.326;10.356;2024-02-04T07:39:29;10.20;99.90
7046;DHT22;3564;53.326;10.356;2024-02-04T07:42:03;10.10;99.90
7046;DHT22;3564;53.326;10.356;2024-02-04T07:44:28;10.10;99.90
7046;DHT22;3564;53.326;10.356;2024-02-04T07:46:54;10.10;99.90
7046;DHT22;3564;53.326;10.356;2024-02-04T07:49:20;10.10;99.90
7046;DHT22;3564;53.326;10.356;2024-02-04T07:51:46;10.10;99.90
7046;DHT22;3564;53.326;10.356;2024-02-04T07:54:11;10.10;99.90
7046;DHT22;3564;53.326;10.356;2024-02-04T07:56:37;10.10;99.90
7046;DHT22;3564;53.326;10.356;2024-02-04T07:59:15;10.10;99.90
7046;DHT22;3564;53.326;10.356;2024-02-04T08:01:41;10.10;99.90
7046;DHT22;3564;53.326;10.356;2024-02-04T08:04:06;10.10;99.90
7046;DHT22;3564;53.326;10.356;2024-02-04T08:06:37;10.10;99.90
7046;DHT22;3564;53.326;10.356;2024-02-04T08:09:03;10.10;99.90
7046;DHT22;3564;53.326;10.356;2024-02-04T08:11:29;10.10;99.90
7046;DHT22;3564;53.326;10.356;2024-02-04T08:13:55;10.20;99.90
7046;DHT22;3564;53.326;10.356;2024-02-04T08:16:21;10.20;99.90
7046;DHT22;3564;53.326;10.356;2024-02-04T08:18:46;10.20;99.90
7046;DHT22;3564;53.326;10.356;2024-02-04T08:21:12;10.20;99.90
7046;DHT22;3564;53.326;10.356;2024-02-04T08:23:38;10.20;99.90
7046;DHT22;3564;53.326;10.356;2024-02-04T08:26:05;10.20;99.90
7046;DHT22;3564;53.326;10.356;2024-02-04T08:28:31;10.20;99.90
7046;DHT22;3564;53.326;10.356;2024-02-04T08:30:57;10.20;99.90
7046;DHT22;3564;53.326;10.356;2024-02-04T08:33:22;10.20;99.90
7046;DHT22;3564;53.326;10.356;2024-02-04T08:35:48;10.20;99.90
7046;DHT22;3564;53.326;10.356;2024-02-04T08:38:14;10.20;99.90
7046;DHT22;3564;53.326;10.356;2024-02-04T08:40:40;10.20;99.90
7046;DHT22;3564;53.326;10.356;2024-02-04T08:43:05;10.20;99.90
7046;DHT22;3564;53.326;10.356;2024-02-04T08:45:34;10.20;99.90
7046;DHT22;3564;53.326;10.356;2024-02-04T08:48:03;10.30;99.90
7046;DHT22;3564;53.326;10.356;2024-02-04T08:50:29;10.30;99.90
7046;DHT22;3564;53.326;10.356;2024-02-04T08:52:54;10.30;99.90
7046;DHT22;3564;53.326;10.356;2024-02-04T08:55:20;10.30;99.90
7046;DHT22;3564;53.326;10.356;2024-02-04T08:57:46;10.40;99.90
7046;DHT22;3564;53.326;10.356;2024-02-04T09:00:17;10.40;99.90
7046;DHT22;3564;53.326;10.356;2024-02-04T09:02:42;10.40;99.90
7046;DHT22;3564;53.326;10.356;2024-02-04T09:05:08;10.40;99.90
7046;DHT22;3564;53.326;10.356;2024-02-04T09:07:37;10.50;99.90
7046;DHT22;3564;53.326;10.356;2024-02-04T09:10:07;10.50;99.90
7046;DHT22;3564;53.326;10.356;2024-02-04T09:12:33;10.50;99.90
7046;DHT22;3564;53.326;10.356;2024-02-04T09:15:01;10.40;99.90
7046;DHT22;3564;53.326;10.356;2024-02-04T09:17:27;10.50;99.90
7046;DHT22;3564;53.326;10.356;2024-02-04T09:19:55;10.50;99.90
7046;DHT22;3564;53.326;10.356;2024-02-04T09:22:21;10.50;99.90
7046;DHT22;3564;53.326;10.356;2024-02-04T09:24:46;10.50;99.90
7046;DHT22;3564;53.326;10.356;2024-02-04T09:27:15;10.50;99.90
7046;DHT22;3564;53.326;10.356;2024-02-04T09:29:40;10.50;99.90
7046;DHT22;3564;53.326;10.356;2024-02-04T09:32:12;10.60;99.90
7046;DHT22;3564;53.326;10.356;2024-02-04T09:34:37;10.60;99.90
7046;DHT22;3564;53.326;10.356;2024-02-04T09:37:06;10.60;99.90
7046;DHT22;3564;53.326;10.356;2024-02-04T09:39:32;10.60;99.90
7046;DHT22;3564;53.326;10.356;2024-02-04T09:41:58;10.70;99.90
7046;DHT22;3564;53.326;10.356;2024-02-04T09:44:25;10.70;99.90
7046;DHT22;3564;53.326;10.356;2024-02-04T09:46:51;10.70;99.90
7046;DHT22;3564;53.326;10.356;2024-02-04T09:49:17;10.80;99.90
7046;DHT22;3564;53.326;10.356;2024-02-04T09:51:44;10.80;99.90
7046;DHT22;3564;53.326;10.356;2024-02-04T09:54:10;10.70;99.90
7046;DHT22;3564;53.326;10.356;2024-02-04T09:56:37;10.70;99.90
7046;DHT22;3564;53.326;10.356;2024-02-04T09:59:04;10.70;99.90
7046;DHT22;3564;53.326;10.356;2024-02-04T10:01:36;10.70;99.90
7046;DHT22;3564;53.326;10.356;2024-02-04T10:04:04;10.70;99.90
7046;DHT22;3564;53.326;10.356;2024-02-04T10:06:30;10.70;99.90
7046;DHT22;3564;53.326;10.356;2024-02-04T10:08:58;10.70;99.90
7046;DHT22;3564;53.326;10.356;2024-02-04T10:11:25;10.70;99.90
7046;DHT22;3564;53.326;10.356;2024-02-04T10:13:50;10.80;99.90
7046;DHT22;3564;53.326;10.356;2024-02-04T10:16:17;10.70;99.90
7046;DHT22;3564;53.326;10.356;2024-02-04T10:18:47;10.70;99.90
7046;DHT22;3564;53.326;10.356;2024-02-04T10:21:21;10.70;99.90
7046;DHT22;3564;53.326;10.356;2024-02-04T10:23:48;10.70;99.90
7046;DHT22;3564;53.326;10.356;2024-02-04T10:26:20;10.70;99.90
7046;DHT22;3564;53.326;10.356;2024-02-04T10:28:49;10.80;99.90
7046;DHT22;3564;53.326;10.356;2024-02-04T10:31:15;10.80;99.90
7046;DHT22;3564;53.326;10.356;2024-02-04T10:33:41;10.70;99.90
7046;DHT22;3564;53.326;10.356;2024-02-04T10:36:06;10.80;99.90
7046;DHT22;3564;53.326;10.356;2024-02-04T10:38:32;10.70;99.90
7046;DHT22;3564;53.326;10.356;2024-02-04T10:41:00;10.80;99.90
7046;DHT22;3564;53.326;10.356;2024-02-04T10:43:36;10.80;99.90
7046;DHT22;3564;53.326;10.356;2024-02-04T10:46:19;10.80;99.90
7046;DHT22;3564;53.326;10.356;2024-02-04T10:48:55;10.90;99.90
7046;DHT22;3564;53.326;10.356;2024-02-04T10:51:25;10.90;99.90
7046;DHT22;3564;53.326;10.356;2024-02-04T10:53:59;10.90;99.90
7046;DHT22;3564;53.326;10.356;2024-02-04T10:56:36;10.90;99.90
7046;DHT22;3564;53.326;10.356;2024-02-04T10:59:03;10.90;99.90
7046;DHT22;3564;53.326;10.356;2024-02-04T11:01:29;11.00;99.90
7046;DHT22;3564;53.326;10.356;2024-02-04T11:03:55;11.00;99.90
7046;DHT22;3564;53.326;10.356;2024-02-04T11:06:26;11.00;99.90
7046;DHT22;3564;53.326;10.356;2024-02-04T11:08:53;11.00;99.90
7046;DHT22;3564;53.326;10.356;2024-02-04T11:11:22;11.00;99.90
7046;DHT22;3564;53.326;10.356;2024-02-04T11:13:51;11.00;99.90
7046;DHT22;3564;53.326;10.356;2024-02-04T11:19:54;11.00;99.90
7046;DHT22;3564;53.326;10.356;2024-02-04T11:27:52;10.90;99.90
7046;DHT22;3564;53.326;10.356;2024-02-04T11:30:18;11.00;99.90
7046;DHT22;3564;53.326;10.356;2024-02-04T11:32:45;11.00;99.90
7046;DHT22;3564;53.326;10.356;2024-02-04T11:35:12;11.10;99.90
7046;DHT22;3564;53.326;10.356;2024-02-04T11:37:38;11.10;99.90
7046;DHT22;3564;53.326;10.356;2024-02-04T11:40:07;11.10;99.90
7046;DHT22;3564;53.326;10.356;2024-02-04T11:42:36;11.10;99.90
7046;DHT22;3564;53.326;10.356;2024-02-04T11:45:12;11.20;99.90
7046;DHT22;3564;53.326;10.356;2024-02-04T11:47:38;11.20;99.90
7046;DHT22;3564;53.326;10.356;2024-02-04T11:50:05;11.30;99.90
7046;DHT22;3564;53.326;10.356;2024-02-04T11:52:30;11.30;99.90
7046;DHT22;3564;53.326;10.356;2024-02-04T11:54:56;11.30;99.90
7046;DHT22;3564;53.326;10.356;2024-02-04T11:57:23;11.30;99.90
7046;DHT22;3564;53.326;10.356;2024-02-04T11:59:49;11.20;99.90
7046;DHT22;3564;53.326;10.356;2024-02-04T12:02:16;11.20;99.90
7046;DHT22;3564;53.326;10.356;2024-02-04T12:04:44;11.20;99.90
7046;DHT22;3564;53.326;10.356;2024-02-04T12:07:10;11.30;99.90
7046;DHT22;3564;53.326;10.356;2024-02-04T12:09:36;11.30;99.90
7046;DHT22;3564;53.326;10.356;2024-02-04T12:12:04;11.40;99.90
7046;DHT22;3564;53.326;10.356;2024-02-04T12:14:31;11.40;99.90
7046;DHT22;3564;53.326;10.356;2024-02-04T12:16:57;11.40;99.90
7046;DHT22;3564;53.326;10.356;2024-02-04T12:19:24;11.40;99.90
7046;DHT22;3564;53.326;10.356;2024-02-04T12:21:49;11.50;99.90
7046;DHT22;3564;53.326;10.356;2024-02-04T12:24:16;11.50;99.90
7046;DHT22;3564;53.326;10.356;2024-02-04T12:26:42;11.50;99.90
7046;DHT22;3564;53.326;10.356;2024-02-04T12:29:13;11.50;99.90
7046;DHT22;3564;53.326;10.356;2024-02-04T12:31:39;11.50;99.90
7046;DHT22;3564;53.326;10.356;2024-02-04T12:34:07;11.60;99.90
7046;DHT22;3564;53.326;10.356;2024-02-04T12:36:36;11.60;99.90
7046;DHT22;3564;53.326;10.356;2024-02-04T12:39:04;11.60;99.90
7046;DHT22;3564;53.326;10.356;2024-02-04T12:41:32;11.60;99.90
7046;DHT22;3564;53.326;10.356;2024-02-04T12:43:59;11.70;99.90
7046;DHT22;3564;53.326;10.356;2024-02-04T12:46:26;11.70;99.90
7046;DHT22;3564;53.326;10.356;2024-02-04T12:48:57;11.80;99.90
7046;DHT22;3564;53.326;10.356;2024-02-04T12:51:32;11.80;99.90
7046;DHT22;3564;53.326;10.356;2024-02-04T12:54:10;11.80;99.90
7046;DHT22;3564;53.326;10.356;2024-02-04T12:56:47;11.80;99.90
7046;DHT22;3564;53.326;10.356;2024-02-04T12:59:33;11.80;99.90
7046;DHT22;3564;53.326;10.356;2024-02-04T13:02:06;11.80;99.90
7046;DHT22;3564;53.326;10.356;2024-02-04T13:04:37;11.70;99.90
7046;DHT22;3564;53.326;10.356;2024-02-04T13:07:18;11.70;99.90
7046;DHT22;3564;53.326;10.356;2024-02-04T13:09:56;11.80;99.90
7046;DHT22;3564;53.326;10.356;2024-02-04T13:12:25;11.80;99.90
7046;DHT22;3564;53.326;10.356;2024-02-04T13:14:51;11.80;99.90
7046;DHT22;3564;53.326;10.356;2024-02-04T13:17:16;11.70;99.90
7046;DHT22;3564;53.326;10.356;2024-02-04T13:19:42;11.70;99.90
7046;DHT22;3564;53.326;10.356;2024-02-04T13:22:09;11.70;99.90
7046;DHT22;3564;53.326;10.356;2024-02-04T13:24:35;11.70;99.90
7046;DHT22;3564;53.326;10.356;2024-02-04T13:27:01;11.60;99.90
7046;DHT22;3564;53.326;10.356;2024-02-04T13:29:28;11.60;99.90
7046;DHT22;3564;53.326;10.356;2024-02-04T13:31:57;11.60;99.90
7046;DHT22;3564;53.326;10.356;2024-02-04T13:34:25;11.60;99.90
7046;DHT22;3564;53.326;10.356;2024-02-04T13:36:51;11.60;99.90
7046;DHT22;3564;53.326;10.356;2024-02-04T13:39:17;11.60;99.90
7046;DHT22;3564;53.326;10.356;2024-02-04T13:41:47;11.60;99.90
7046;DHT22;3564;53.326;10.356;2024-02-04T13:44:16;11.60;99.90
7046;DHT22;3564;53.326;10.356;2024-02-04T13:46:41;11.70;99.90
7046;DHT22;3564;53.326;10.356;2024-02-04T13:49:09;11.70;99.90
7046;DHT22;3564;53.326;10.356;2024-02-04T13:51:34;11.70;99.90
7046;DHT22;3564;53.326;10.356;2024-02-04T13:54:01;11.60;99.90
7046;DHT22;3564;53.326;10.356;2024-02-04T13:56:27;11.60;99.90
7046;DHT22;3564;53.326;10.356;2024-02-04T13:58:56;11.60;99.90
7046;DHT22;3564;53.326;10.356;2024-02-04T14:01:22;11.70;99.90
7046;DHT22;3564;53.326;10.356;2024-02-04T14:03:48;11.70;99.90
7046;DHT22;3564;53.326;10.356;2024-02-04T14:06:21;11.70;99.90
7046;DHT22;3564;53.326;10.356;2024-02-04T14:08:47;11.70;99.90
7046;DHT22;3564;53.326;10.356;2024-02-04T14:11:12;11.80;99.90
7046;DHT22;3564;53.326;10.356;2024-02-04T14:13:38;11.80;99.90
7046;DHT22;3564;53.326;10.356;2024-02-04T14:16:07;11.70;99.90
7046;DHT22;3564;53.326;10.356;2024-02-04T14:18:34;11.80;99.90
7046;DHT22;3564;53.326;10.356;2024-02-04T14:21:00;11.70;99.90
7046;DHT22;3564;53.326;10.356;2024-02-04T14:23:28;11.70;99.90
7046;DHT22;3564;53.326;10.356;2024-02-04T14:25:57;11.70;99.90
7046;DHT22;3564;53.326;10.356;2024-02-04T14:28:23;11.70;99.90
7046;DHT22;3564;53.326;10.356;2024-02-04T14:30:48;11.70;99.90
7046;DHT22;3564;53.326;10.356;2024-02-04T14:33:14;11.80;99.90
7046;DHT22;3564;53.326;10.356;2024-02-04T14:35:40;11.80;99.90
7046;DHT22;3564;53.326;10.356;2024-02-04T14:38:08;11.80;99.90
7046;DHT22;3564;53.326;10.356;2024-02-04T14:40:39;11.80;99.90
7046;DHT22;3564;53.326;10.356;2024-02-04T14:43:05;11.80;99.90
7046;DHT22;3564;53.326;10.356;2024-02-04T14:45:31;11.70;99.90
7046;DHT22;3564;53.326;10.356;2024-02-04T14:47:56;11.70;99.90
7046;DHT22;3564;53.326;10.356;2024-02-04T14:50:22;11.70;99.90
7046;DHT22;3564;53.326;10.356;2024-02-04T14:52:47;11.70;99.90
7046;DHT22;3564;53.326;10.356;2024-02-04T14:55:13;11.80;99.90
7046;DHT22;3564;53.326;10.356;2024-02-04T14:57:39;11.70;99.90
7046;DHT22;3564;53.326;10.356;2024-02-04T15:00:05;11.70;99.90
7046;DHT22;3564;53.326;10.356;2024-02-04T15:02:34;11.80;99.90
7046;DHT22;3564;53.326;10.356;2024-02-04T15:04:59;11.70;99.90
7046;DHT22;3564;53.326;10.356;2024-02-04T15:07:25;11.70;99.90
7046;DHT22;3564;53.326;10.356;2024-02-04T15:09:51;11.70;99.90
7046;DHT22;3564;53.326;10.356;2024-02-04T15:12:19;11.80;99.90
7046;DHT22;3564;53.326;10.356;2024-02-04T15:14:51;11.80;99.90
7046;DHT22;3564;53.326;10.356;2024-02-04T15:17:16;11.80;99.90
7046;DHT22;3564;53.326;10.356;2024-02-04T15:19:42;11.80;99.90
7046;DHT22;3564;53.326;10.356;2024-02-04T15:22:08;11.70;99.90
7046;DHT22;3564;53.326;10.356;2024-02-04T15:24:34;11.70;99.90
7046;DHT22;3564;53.326;10.356;2024-02-04T15:27:00;11.70;99.90
7046;DHT22;3564;53.326;10.356;2024-02-04T15:29:34;11.60;99.90
7046;DHT22;3564;53.326;10.356;2024-02-04T15:32:04;11.60;99.90
7046;DHT22;3564;53.326;10.356;2024-02-04T15:34:31;11.60;99.90
7046;DHT22;3564;53.326;10.356;2024-02-04T15:37:03;11.60;99.90
7046;DHT22;3564;53.326;10.356;2024-02-04T15:39:29;11.60;99.90
7046;DHT22;3564;53.326;10.356;2024-02-04T15:41:54;11.60;99.90
7046;DHT22;3564;53.326;10.356;2024-02-04T15:44:23;11.60;99.90
7046;DHT22;3564;53.326;10.356;2024-02-04T15:46:49;11.60;99.90
7046;DHT22;3564;53.326;10.356;2024-02-04T15:49:19;11.60;99.90
7046;DHT22;3564;53.326;10.356;2024-02-04T15:51:46;11.60;99.90
7046;DHT22;3564;53.326;10.356;2024-02-04T15:54:12;11.60;99.90
7046;DHT22;3564;53.326;10.356;2024-02-04T15:56:43;11.60;99.90
7046;DHT22;3564;53.326;10.356;2024-02-04T15:59:09;11.60;99.90
7046;DHT22;3564;53.326;10.356;2024-02-04T16:01:38;11.50;99.90